createdAt,value
2019-02-06T00:01:55.773Z,30.00
2019-02-06T00:04:23.193Z,30.95
2019-02-06T00:06:50.625Z,29.75
2019-02-06T00:09:37.365Z,29.25
2019-02-06T00:12:05.098Z,29.90
2019-02-06T00:14:32.474Z,30.43
2019-02-06T00:17:00.551Z,27.52
2019-02-06T00:19:27.979Z,27.40
2019-02-06T00:21:55.565Z,28.52
2019-02-06T00:24:22.970Z,24.75
2019-02-06T00:26:50.775Z,24.05
2019-02-06T00:29:18.142Z,23.40
2019-02-06T00:31:45.625Z,24.27
2019-02-06T00:34:13.327Z,24.75
2019-02-06T00:36:40.781Z,24.20
2019-02-06T00:39:08.369Z,22.82
2019-02-06T00:41:35.901Z,24.35
2019-02-06T00:44:03.382Z,22.52
2019-02-06T00:46:30.884Z,24.40
2019-02-06T00:48:58.301Z,27.30
2019-02-06T00:51:26.092Z,21.82
2019-02-06T00:53:53.662Z,21.30
2019-02-06T00:56:21.085Z,22.60
2019-02-06T00:58:48.544Z,22.60
2019-02-06T01:01:16.034Z,23.75
2019-02-06T01:03:43.470Z,25.40
2019-02-06T01:06:10.906Z,23.42
2019-02-06T01:08:38.309Z,24.65
2019-02-06T01:11:06.396Z,26.45
2019-02-06T01:13:33.958Z,23.75
2019-02-06T01:16:01.415Z,25.12
2019-02-06T01:18:28.844Z,24.95
2019-02-06T01:20:56.310Z,23.35
2019-02-06T01:23:23.806Z,24.75
2019-02-06T01:25:51.352Z,26.37
2019-02-06T01:28:19.097Z,26.82
2019-02-06T01:30:48.144Z,23.52
2019-02-06T01:33:15.636Z,24.25
2019-02-06T01:35:49.944Z,26.80
2019-02-06T01:38:12.140Z,24.32
2019-02-06T01:40:39.584Z,24.92
2019-02-06T01:43:07.069Z,24.85
2019-02-06T01:45:34.928Z,26.45
2019-02-06T01:48:02.351Z,28.35
2019-02-06T01:50:29.809Z,26.75
2019-02-06T01:52:57.222Z,27.32
2019-02-06T01:55:24.629Z,26.07
2019-02-06T01:57:52.115Z,26.77
2019-02-06T02:00:20.665Z,25.82
2019-02-06T02:02:48.142Z,26.57
2019-02-06T02:05:16.543Z,26.90
2019-02-06T02:07:43.959Z,25.35
2019-02-06T02:10:11.493Z,26.97
2019-02-06T02:12:38.973Z,27.52
2019-02-06T02:15:07.981Z,26.00
2019-02-06T02:17:35.485Z,25.02
2019-02-06T02:20:03.003Z,25.32
2019-02-06T02:22:30.738Z,26.42
2019-02-06T02:24:58.145Z,25.77
2019-02-06T02:27:25.561Z,24.12
2019-02-06T02:29:52.987Z,25.37
2019-02-06T02:32:20.420Z,25.68
2019-02-06T02:34:47.832Z,26.65
2019-02-06T02:37:15.328Z,26.70
2019-02-06T02:39:42.862Z,25.52
2019-02-06T02:42:10.292Z,25.88
2019-02-06T02:44:37.718Z,26.80
2019-02-06T02:47:05.134Z,27.37
2019-02-06T02:49:32.537Z,26.12
2019-02-06T02:51:59.956Z,27.17
2019-02-06T02:54:27.392Z,25.57
2019-02-06T02:56:55.214Z,25.48
2019-02-06T02:59:22.614Z,24.72
2019-02-06T03:01:51.692Z,27.73
2019-02-06T03:04:20.760Z,25.65
2019-02-06T03:06:48.156Z,25.12
2019-02-06T03:09:15.594Z,24.95
2019-02-06T03:11:43.043Z,24.70
2019-02-06T03:14:10.773Z,25.30
2019-02-06T03:16:38.237Z,26.07
2019-02-06T03:19:05.630Z,25.20
2019-02-06T03:21:33.044Z,27.20
2019-02-06T03:24:00.463Z,26.10
2019-02-06T03:26:27.893Z,26.52
2019-02-06T03:28:55.465Z,25.10
2019-02-06T03:31:22.884Z,25.40
2019-02-06T03:33:50.308Z,26.80
2019-02-06T03:36:17.709Z,25.85
2019-02-06T03:38:45.141Z,27.15
2019-02-06T03:41:12.668Z,25.82
2019-02-06T03:43:40.076Z,24.37
2019-02-06T03:46:07.477Z,28.27
2019-02-06T03:48:34.909Z,25.95
2019-02-06T03:51:02.708Z,25.88
2019-02-06T03:53:30.137Z,26.40
2019-02-06T03:55:57.549Z,28.38
2019-02-06T03:58:24.964Z,26.25
2019-02-06T04:00:52.383Z,25.15
2019-02-06T04:03:19.789Z,26.05
2019-02-06T04:05:47.236Z,26.12
2019-02-06T04:08:14.630Z,27.55
2019-02-06T04:10:42.103Z,27.05
2019-02-06T04:13:09.594Z,26.97
2019-02-06T04:15:37.117Z,25.70
2019-02-06T04:18:04.520Z,29.20
2019-02-06T04:20:31.934Z,27.58
2019-02-06T04:22:59.362Z,27.75
2019-02-06T04:25:26.762Z,29.95
2019-02-06T04:27:54.301Z,27.73
2019-02-06T04:30:21.732Z,31.23
2019-02-06T04:32:49.283Z,29.55
2019-02-06T04:35:16.910Z,28.45
2019-02-06T04:37:44.500Z,29.00
2019-02-06T04:40:13.483Z,28.23
2019-02-06T04:42:40.894Z,29.02
2019-02-06T04:45:09.586Z,27.30
2019-02-06T04:47:37.028Z,29.42
2019-02-06T04:50:06.218Z,29.98
2019-02-06T04:52:33.644Z,28.12
2019-02-06T04:55:01.050Z,30.30
2019-02-06T04:57:28.489Z,29.30
2019-02-06T04:59:55.906Z,28.17
2019-02-06T05:02:23.604Z,28.02
2019-02-06T05:04:51.035Z,27.13
2019-02-06T05:07:19.709Z,27.25
2019-02-06T05:09:47.169Z,27.95
2019-02-06T05:12:14.577Z,31.25
2019-02-06T05:14:42.023Z,28.23
2019-02-06T05:17:09.435Z,27.17
2019-02-06T05:19:37.140Z,27.95
2019-02-06T05:22:04.600Z,26.55
2019-02-06T05:24:32.024Z,28.00
2019-02-06T05:26:59.433Z,29.50
2019-02-06T05:29:26.875Z,28.20
2019-02-06T05:31:54.297Z,29.25
2019-02-06T05:34:21.744Z,28.40
2019-02-06T05:36:50.965Z,26.42
2019-02-06T05:39:18.193Z,29.00
2019-02-06T05:41:45.654Z,29.55
2019-02-06T05:44:13.078Z,27.85
2019-02-06T05:46:40.482Z,29.80
2019-02-06T05:49:07.910Z,28.35
2019-02-06T05:51:35.367Z,29.72
2019-02-06T05:54:02.796Z,27.45
2019-02-06T05:56:30.198Z,28.05
2019-02-06T05:58:57.617Z,27.80
2019-02-06T06:01:25.284Z,25.62
2019-02-06T06:03:52.785Z,25.62
2019-02-06T06:06:20.214Z,24.45
2019-02-06T06:08:47.650Z,26.75
2019-02-06T06:11:15.276Z,26.23
2019-02-06T06:13:42.939Z,26.80
2019-02-06T06:16:10.620Z,24.15
2019-02-06T06:18:38.049Z,24.77
2019-02-06T06:21:05.487Z,24.70
2019-02-06T06:23:33.045Z,24.75
2019-02-06T06:26:00.527Z,31.90
2019-02-06T06:28:27.996Z,25.05
2019-02-06T06:30:55.466Z,25.92
2019-02-06T06:33:22.882Z,24.40
2019-02-06T06:35:50.666Z,27.50
2019-02-06T06:38:18.321Z,26.42
2019-02-06T06:40:45.779Z,30.12
2019-02-06T06:43:16.052Z,27.17
2019-02-06T06:45:42.500Z,26.45
2019-02-06T06:48:09.977Z,24.72
2019-02-06T06:50:37.432Z,23.83
2019-02-06T06:53:05.227Z,25.62
2019-02-06T06:55:35.048Z,26.60
2019-02-06T06:58:01.792Z,23.98
2019-02-06T07:00:30.367Z,26.30
2019-02-06T07:02:57.827Z,25.02
2019-02-06T07:05:25.561Z,24.30
2019-02-06T07:07:55.186Z,25.85
2019-02-06T07:10:22.980Z,25.37
2019-02-06T07:12:50.493Z,25.90
2019-02-06T07:15:19.424Z,26.77
2019-02-06T07:17:46.925Z,24.00
2019-02-06T07:20:15.589Z,26.37
2019-02-06T07:22:43.017Z,28.32
2019-02-06T07:25:11.394Z,26.60
2019-02-06T07:27:39.124Z,27.50
2019-02-06T07:30:10.857Z,24.70
2019-02-06T07:32:38.366Z,24.77
2019-02-06T07:35:05.766Z,24.95
2019-02-06T07:37:33.275Z,22.02
2019-02-06T07:40:00.688Z,22.93
2019-02-06T07:42:28.197Z,23.95
2019-02-06T07:44:55.991Z,23.65
2019-02-06T07:47:23.392Z,24.37
2019-02-06T07:49:50.821Z,23.65
2019-02-06T07:52:18.234Z,25.32
2019-02-06T07:54:45.657Z,23.65
2019-02-06T07:57:13.064Z,22.50
2019-02-06T07:59:40.537Z,22.70
2019-02-06T08:02:08.243Z,20.72
2019-02-06T08:04:35.700Z,21.68
2019-02-06T08:07:03.176Z,20.95
2019-02-06T08:09:30.610Z,22.13
2019-02-06T08:11:58.036Z,22.60
2019-02-06T08:14:25.465Z,21.65
2019-02-06T08:16:52.940Z,22.73
2019-02-06T08:19:20.354Z,21.40
2019-02-06T08:21:49.670Z,22.30
2019-02-06T08:24:16.862Z,21.27
2019-02-06T08:26:44.273Z,21.45
2019-02-06T08:29:11.713Z,22.27
2019-02-06T08:31:39.150Z,23.70
2019-02-06T08:34:06.577Z,21.07
2019-02-06T08:36:33.996Z,22.45
2019-02-06T08:39:01.475Z,20.77
2019-02-06T08:41:28.910Z,21.10
2019-02-06T08:43:56.417Z,21.55
2019-02-06T08:46:23.825Z,22.05
2019-02-06T08:48:51.286Z,21.42
2019-02-06T08:51:18.737Z,22.48
2019-02-06T08:53:46.168Z,20.55
2019-02-06T08:56:13.950Z,22.00
2019-02-06T08:58:41.478Z,22.17
2019-02-06T12:01:04.775Z,13.60
2019-02-06T12:03:32.235Z,15.23
2019-02-06T12:05:59.644Z,14.68
2019-02-06T12:08:27.290Z,15.18
2019-02-06T12:10:54.787Z,15.15
2019-02-06T12:13:22.264Z,14.78
2019-02-06T12:15:49.674Z,15.40
2019-02-06T12:18:17.099Z,14.68
2019-02-06T12:20:44.553Z,14.75
2019-02-06T12:23:11.926Z,14.33
2019-02-06T12:25:39.429Z,14.58
2019-02-06T12:28:07.134Z,15.58
2019-02-06T12:30:35.722Z,14.50
2019-02-06T12:33:03.236Z,15.65
2019-02-06T12:35:30.754Z,14.13
2019-02-06T12:37:58.326Z,15.68
2019-02-06T12:40:25.841Z,14.95
2019-02-06T12:42:53.339Z,14.60
2019-02-06T12:45:21.163Z,14.75
2019-02-06T12:47:48.887Z,14.43
2019-02-06T12:50:20.181Z,14.85
2019-02-06T12:52:47.693Z,14.87
2019-02-06T12:55:19.727Z,14.47
2019-02-06T12:57:47.234Z,14.47
2019-02-06T13:00:19.309Z,14.35
2019-02-06T13:02:46.763Z,13.85
2019-02-06T13:05:14.453Z,13.60
2019-02-06T13:07:41.930Z,14.85
2019-02-06T13:10:10.732Z,15.03
2019-02-06T13:12:38.211Z,14.90
2019-02-06T13:15:07.250Z,13.90
2019-02-06T13:17:34.686Z,15.38
2019-02-06T13:20:02.127Z,14.73
2019-02-06T13:22:29.837Z,14.55
2019-02-06T13:24:57.229Z,14.53
2019-02-06T13:27:24.682Z,13.32
2019-02-06T13:29:52.167Z,13.93
2019-02-06T13:32:19.578Z,15.95
2019-02-06T13:34:47.030Z,14.63
2019-02-06T13:37:14.440Z,14.07
2019-02-06T13:39:42.123Z,15.43
2019-02-06T13:42:09.564Z,14.50
2019-02-06T13:44:36.972Z,15.72
2019-02-06T13:47:04.564Z,15.60
2019-02-06T13:49:31.981Z,15.23
2019-02-06T13:51:59.731Z,15.30
2019-02-06T13:54:27.091Z,13.83
2019-02-06T13:56:54.904Z,13.50
2019-02-06T13:59:22.306Z,14.50
2019-02-06T14:01:49.764Z,15.00
2019-02-06T14:04:17.168Z,14.33
2019-02-06T14:06:44.618Z,14.65
2019-02-06T14:09:22.261Z,13.53
2019-02-06T14:11:42.957Z,13.30
2019-02-06T14:14:10.581Z,13.72
2019-02-06T14:16:38.070Z,14.18
2019-02-06T14:19:05.514Z,14.65
2019-02-06T14:21:32.940Z,12.70
2019-02-06T14:24:06.638Z,13.83
2019-02-06T14:26:41.369Z,13.10
2019-02-06T14:29:13.276Z,14.05
2019-02-06T14:31:47.884Z,13.43
2019-02-06T14:34:19.807Z,14.25
2019-02-06T14:36:51.428Z,14.40
2019-02-06T14:39:32.417Z,13.85
2019-02-06T14:42:01.394Z,13.88
2019-02-06T14:44:45.397Z,12.90
2019-02-06T14:47:26.039Z,13.80
2019-02-06T14:50:01.151Z,15.25
2019-02-06T14:52:47.951Z,14.73
2019-02-06T14:55:16.955Z,14.05
2019-02-06T14:58:00.913Z,13.25
2019-02-06T15:00:35.795Z,13.28
2019-02-06T15:03:04.759Z,14.33
2019-02-06T15:05:50.274Z,14.35
2019-02-06T15:08:19.205Z,14.53
2019-02-06T15:10:54.242Z,13.62
2019-02-06T15:13:41.006Z,14.25
2019-02-06T15:16:26.179Z,13.88
2019-02-06T15:18:59.480Z,13.15
2019-02-06T15:21:36.220Z,13.35
2019-02-06T15:24:08.463Z,14.45
2019-02-06T15:26:42.957Z,14.73
2019-02-06T15:29:20.612Z,12.30
2019-02-06T15:32:04.521Z,14.85
2019-02-06T15:34:42.113Z,13.40
2019-02-06T15:37:19.643Z,13.03
2019-02-06T15:40:04.648Z,14.50
2019-02-06T15:42:45.611Z,13.38
2019-02-06T15:45:14.557Z,14.28
2019-02-06T15:47:43.605Z,12.98
2019-02-06T15:50:12.558Z,13.90
2019-02-06T15:52:41.512Z,14.00
2019-02-06T15:55:22.173Z,13.85
2019-02-06T15:57:51.184Z,14.07
2019-02-06T16:00:20.141Z,13.95
2019-02-06T16:02:57.937Z,14.33
2019-02-06T16:05:40.375Z,15.58
2019-02-06T16:08:09.341Z,16.02
2019-02-06T16:10:44.242Z,13.93
2019-02-06T16:13:21.884Z,14.70
2019-02-06T16:15:53.869Z,15.50
2019-02-06T16:18:25.756Z,16.27
2019-02-06T16:21:00.497Z,14.65
2019-02-06T16:23:29.446Z,14.60
2019-02-06T16:26:04.358Z,15.10
2019-02-06T16:28:39.249Z,14.90
2019-02-06T16:31:19.950Z,14.38
2019-02-06T16:33:51.891Z,14.80
2019-02-06T16:36:29.738Z,16.00
2019-02-06T16:38:58.759Z,15.10
2019-02-06T16:41:39.458Z,15.70
2019-02-06T16:44:08.448Z,15.80
2019-02-06T16:46:53.970Z,15.40
2019-02-06T16:49:25.599Z,14.90
2019-02-06T16:52:06.703Z,14.90
2019-02-06T16:54:50.534Z,14.95
2019-02-06T16:57:28.473Z,15.90
2019-02-06T17:00:00.461Z,16.02
2019-02-06T17:02:45.578Z,14.70
2019-02-06T17:05:30.748Z,15.20
2019-02-06T17:07:59.801Z,14.98
2019-02-06T17:10:28.759Z,14.30
2019-02-06T17:13:09.798Z,16.50
2019-02-06T17:15:38.797Z,16.00
2019-02-06T17:18:13.773Z,16.82
2019-02-06T17:20:51.799Z,15.43
2019-02-06T17:23:29.734Z,15.38
2019-02-06T17:25:58.707Z,15.53
2019-02-06T17:28:27.690Z,15.10
2019-02-06T17:30:59.419Z,15.10
2019-02-06T17:33:31.057Z,14.23
2019-02-06T17:36:05.879Z,16.60
2019-02-06T17:38:34.832Z,15.80
2019-02-06T17:41:06.772Z,14.03
2019-02-06T17:43:38.660Z,15.72
2019-02-06T17:46:16.558Z,13.60
2019-02-06T17:48:48.400Z,14.47
2019-02-06T17:51:23.081Z,14.75
2019-02-06T17:53:52.035Z,15.80
2019-02-06T17:56:19.514Z,14.78
2019-02-06T17:58:46.940Z,14.05
2019-02-06T18:01:16.216Z,15.03
2019-02-06T18:03:44.611Z,14.75
2019-02-06T18:06:12.488Z,13.90
2019-02-06T18:08:39.951Z,14.87
2019-02-06T18:11:07.408Z,15.53
2019-02-06T18:13:34.885Z,15.00
2019-02-06T18:16:02.716Z,14.65
2019-02-06T18:18:30.134Z,15.15
2019-02-06T18:20:57.533Z,15.03
2019-02-06T18:23:24.993Z,13.90
2019-02-06T18:25:52.679Z,14.20
2019-02-06T18:28:20.088Z,14.40
2019-02-06T18:30:47.567Z,15.38
2019-02-06T18:33:15.150Z,13.93
2019-02-06T18:35:42.560Z,16.80
2019-02-06T18:38:10.143Z,15.48
2019-02-06T18:40:39.086Z,15.13
2019-02-06T18:43:06.559Z,14.70
2019-02-06T18:45:33.930Z,13.90
2019-02-06T18:48:01.908Z,15.65
2019-02-06T18:50:31.179Z,13.50
2019-02-06T18:52:58.678Z,15.40
2019-02-06T18:55:26.171Z,15.70
2019-02-06T18:57:54.043Z,15.48
2019-02-06T19:00:28.755Z,15.40
2019-02-06T19:02:56.225Z,14.75
2019-02-06T19:05:27.983Z,13.30
2019-02-06T19:07:55.440Z,16.15
2019-02-06T19:10:24.556Z,15.50
2019-02-06T19:12:52.215Z,15.50
2019-02-06T19:15:19.676Z,16.27
2019-02-06T19:17:47.755Z,14.30
2019-02-06T19:20:16.426Z,15.20
2019-02-06T19:22:43.935Z,14.58
2019-02-06T19:25:12.888Z,15.18
2019-02-06T19:27:40.304Z,15.05
2019-02-06T19:30:15.241Z,15.45
2019-02-06T19:32:44.449Z,14.75
2019-02-06T19:35:11.695Z,14.07
2019-02-06T19:37:39.079Z,14.23
2019-02-06T19:40:08.046Z,14.55
2019-02-06T19:42:35.460Z,14.80
2019-02-06T19:45:02.895Z,16.00
2019-02-06T19:47:30.776Z,13.98
2019-02-06T19:49:58.188Z,14.35
2019-02-06T19:52:25.633Z,15.40
2019-02-06T19:54:53.327Z,13.53
2019-02-06T19:57:20.732Z,15.78
2019-02-06T19:59:48.156Z,16.42
2019-02-06T20:02:15.581Z,15.85
2019-02-06T20:04:42.970Z,15.70
2019-02-06T20:07:10.466Z,15.90
2019-02-06T20:09:37.885Z,14.55
2019-02-06T20:12:05.397Z,15.80
2019-02-06T20:14:32.818Z,14.73
2019-02-06T20:17:00.537Z,15.15
2019-02-06T20:19:27.962Z,13.90
2019-02-06T20:21:55.442Z,14.58
2019-02-06T20:24:22.872Z,15.72
2019-02-06T20:26:50.271Z,15.58
2019-02-06T20:29:17.688Z,14.53
2019-02-06T20:31:45.165Z,15.55
2019-02-06T20:34:12.554Z,16.52
2019-02-06T20:36:39.982Z,15.13
2019-02-06T20:39:07.643Z,16.23
2019-02-06T20:41:35.089Z,15.80
2019-02-06T20:44:02.551Z,16.00
2019-02-06T20:46:29.972Z,15.85
2019-02-06T20:48:57.375Z,14.90
2019-02-06T20:51:24.781Z,14.93
2019-02-06T20:53:52.448Z,15.65
2019-02-06T20:56:19.858Z,15.58
2019-02-06T20:58:47.591Z,14.25
2019-02-06T21:01:15.003Z,14.75
2019-02-06T21:03:42.395Z,14.55
2019-02-06T21:06:09.825Z,15.18
2019-02-06T21:08:37.320Z,14.73
2019-02-06T21:11:04.786Z,13.62
2019-02-06T21:13:33.702Z,14.65
2019-02-06T21:16:01.265Z,15.93
2019-02-06T21:18:28.848Z,15.65
2019-02-06T21:20:56.245Z,15.00
2019-02-06T21:23:23.645Z,15.60
2019-02-06T21:25:51.055Z,16.02
2019-02-06T21:28:18.469Z,16.05
2019-02-06T21:30:46.962Z,15.88
2019-02-06T21:33:14.494Z,15.93
2019-02-06T21:35:42.116Z,15.30
2019-02-06T21:38:09.565Z,15.43
2019-02-06T21:40:37.354Z,14.05
2019-02-06T21:43:05.224Z,14.70
2019-02-06T21:45:32.741Z,14.85
2019-02-06T21:48:00.170Z,14.73
2019-02-06T21:50:27.638Z,15.32
2019-02-06T21:52:55.827Z,15.23
2019-02-06T21:55:23.957Z,16.35
2019-02-06T21:57:51.422Z,14.83
2019-02-06T22:00:20.145Z,14.90
2019-02-06T22:02:47.591Z,14.35
2019-02-06T22:05:15.120Z,14.55
2019-02-06T22:07:42.533Z,15.85
2019-02-06T22:10:14.511Z,14.70
2019-02-06T22:12:41.895Z,14.40
2019-02-06T22:15:13.620Z,14.70
2019-02-06T22:17:40.972Z,14.63
2019-02-06T22:20:09.192Z,14.80
2019-02-06T22:22:36.601Z,15.60
2019-02-06T22:25:05.610Z,16.75
2019-02-06T22:27:33.039Z,15.50
2019-02-06T22:30:00.519Z,14.47
2019-02-06T22:32:27.905Z,15.48
2019-02-06T22:34:55.320Z,14.38
2019-02-06T22:37:22.728Z,14.70
2019-02-06T22:39:50.151Z,15.28
2019-02-06T22:42:17.652Z,13.93
2019-02-06T22:44:45.094Z,14.38
2019-02-06T22:47:12.491Z,15.60
2019-02-06T22:49:39.899Z,14.28
2019-02-06T22:52:07.298Z,15.48
2019-02-06T22:54:34.713Z,15.58
2019-02-06T22:57:02.122Z,16.07
2019-02-06T22:59:29.852Z,14.35
2019-02-06T23:01:57.342Z,16.23
2019-02-06T23:04:24.745Z,15.28
2019-02-06T23:06:52.154Z,16.30
2019-02-06T23:09:19.563Z,16.07
2019-02-06T23:11:46.967Z,13.75
2019-02-06T23:14:17.783Z,16.25
2019-02-06T23:16:43.549Z,16.40
2019-02-06T23:19:10.934Z,15.45
2019-02-06T23:21:38.339Z,16.80
2019-02-06T23:24:06.005Z,16.50
2019-02-06T23:26:33.385Z,16.45
2019-02-06T23:29:00.773Z,17.02
2019-02-06T23:31:28.195Z,17.05
2019-02-06T23:33:55.847Z,14.93
2019-02-06T23:36:23.229Z,16.85
2019-02-06T23:38:50.653Z,16.15
2019-02-06T23:41:18.053Z,15.28
2019-02-06T23:43:45.477Z,16.62
2019-02-06T23:46:12.891Z,16.97
2019-02-06T23:48:40.292Z,15.98
2019-02-06T23:51:08.018Z,16.20
2019-02-06T23:53:35.416Z,16.10
2019-02-06T23:56:02.839Z,16.50
2019-02-06T23:58:30.231Z,16.12
